Historique des stations

Station météo de Chailles

Altitude de la station : 86 m







Données météorologiques pour le 18/08/2022
Date
Heure
Températures Humidité Point de rosée Vitesse
du vent
Direction Rafales Windchill Pression Pluviométrie
Cumul
Date
Heure
Températures Humidité Point de rosée Vitesse
du vent
Direction Rafales Windchill Pression Pluviométrie
Cumul
18/08/2022 23:5818.5 °C79 %14.8 °C3 km/hO6 km/h18.51016 hPa0.0 mm
18/08/2022 23:4818.6 °C78 %14.7 °C-O5 km/h18.61016 hPa0.2 mm
18/08/2022 23:4318.7 °C78 %14.8 °C-OSO2 km/h18.71016 hPa0.2 mm
18/08/2022 23:3318.7 °C77 %14.6 °C2 km/hO3 km/h18.71016 hPa0.2 mm
18/08/2022 23:2818.7 °C77 %14.6 °C2 km/hOSO5 km/h18.71016 hPa0.2 mm
18/08/2022 23:1818.8 °C76 %14.5 °C3 km/hO6 km/h18.81015 hPa0.2 mm
18/08/2022 23:1318.8 °C76 %14.5 °C3 km/hOSO5 km/h18.81015 hPa0.2 mm
18/08/2022 23:0318.8 °C77 %14.7 °C3 km/hO6 km/h18.81015 hPa0.2 mm
18/08/2022 22:5818.9 °C77 %14.8 °C3 km/hOSO6 km/h18.91015 hPa0.2 mm
18/08/2022 22:4819.1 °C77 %15.0 °C2 km/hONO5 km/h19.11015 hPa0.2 mm
18/08/2022 22:4319.2 °C76 %14.9 °C2 km/hONO3 km/h19.21015 hPa0.2 mm
18/08/2022 22:3319.6 °C76 %15.2 °C2 km/hONO5 km/h19.61015 hPa0.2 mm
18/08/2022 22:2819.9 °C74 %15.2 °C2 km/hONO2 km/h19.91015 hPa0.2 mm
18/08/2022 22:1820.4 °C72 %15.2 °C-ONO2 km/h20.41015 hPa0.2 mm
18/08/2022 22:1320.6 °C71 %15.2 °C-ONO2 km/h20.61015 hPa0.2 mm
18/08/2022 22:0321.0 °C71 %15.5 °C-ONO2 km/h21.01015 hPa0.2 mm
18/08/2022 21:5821.1 °C70 %15.4 °C-ONO3 km/h21.11015 hPa0.2 mm
18/08/2022 21:4821.6 °C68 %15.4 °C3 km/hONO5 km/h21.61015 hPa0.2 mm
18/08/2022 21:4321.7 °C67 %15.3 °C3 km/hONO5 km/h21.71015 hPa0.2 mm
18/08/2022 21:3322.2 °C66 %15.6 °C3 km/hONO5 km/h22.21015 hPa0.2 mm
18/08/2022 21:2822.4 °C66 %15.7 °C3 km/hONO5 km/h22.41014 hPa0.2 mm
18/08/2022 21:1822.7 °C65 %15.8 °C5 km/hONO6 km/h22.71014 hPa0.2 mm
18/08/2022 21:1322.9 °C64 %15.7 °C5 km/hONO8 km/h22.91014 hPa0.2 mm
18/08/2022 21:0323.3 °C63 %15.8 °C6 km/hONO10 km/h23.31014 hPa0.2 mm
18/08/2022 20:5823.6 °C62 %15.8 °C6 km/hO10 km/h23.61014 hPa0.2 mm
18/08/2022 20:4824.0 °C60 %15.8 °C6 km/hO11 km/h24.01014 hPa0.2 mm
18/08/2022 20:4324.2 °C59 %15.7 °C5 km/hO11 km/h24.21014 hPa0.2 mm
18/08/2022 20:3324.8 °C57 %15.7 °C8 km/hO11 km/h24.81014 hPa0.2 mm
18/08/2022 20:2825.0 °C57 %15.9 °C6 km/hONO13 km/h25.01014 hPa0.2 mm
18/08/2022 20:1825.4 °C55 %15.7 °C8 km/hONO16 km/h25.41014 hPa0.2 mm
18/08/2022 20:1325.7 °C54 %15.7 °C5 km/hONO11 km/h25.71014 hPa0.2 mm
18/08/2022 20:0326.4 °C52 %15.7 °C10 km/hO15 km/h26.41014 hPa0.2 mm
18/08/2022 19:5826.7 °C50 %15.4 °C11 km/hNW16 km/h26.71014 hPa0.2 mm
18/08/2022 19:4826.9 °C49 %15.3 °C8 km/hO13 km/h26.91014 hPa0.2 mm
18/08/2022 19:4326.8 °C49 %15.2 °C8 km/hOSO15 km/h26.81014 hPa0.2 mm
18/08/2022 19:3327.1 °C47 %14.8 °C8 km/hONO16 km/h27.11014 hPa0.2 mm
18/08/2022 19:2827.2 °C45 %14.2 °C13 km/hONO15 km/h27.21014 hPa0.2 mm
18/08/2022 19:1827.3 °C47 %15.0 °C11 km/hNO18 km/h27.31014 hPa0.2 mm
18/08/2022 19:1327.3 °C47 %15.0 °C10 km/hO19 km/h27.31014 hPa0.2 mm
18/08/2022 19:0327.4 °C46 %14.8 °C11 km/hO24 km/h27.41014 hPa0.2 mm
18/08/2022 18:5827.5 °C46 %14.8 °C13 km/hONO24 km/h27.31014 hPa0.2 mm
18/08/2022 18:4827.2 °C48 %15.3 °C8 km/hO19 km/h27.21014 hPa0.2 mm
18/08/2022 18:4327.4 °C48 %15.4 °C10 km/hNW19 km/h27.41014 hPa0.2 mm
18/08/2022 18:3327.4 °C49 %15.8 °C10 km/hONO18 km/h27.41014 hPa0.2 mm
18/08/2022 18:2827.5 °C49 %15.8 °C10 km/hONO18 km/h27.51014 hPa0.2 mm
18/08/2022 18:1827.7 °C49 %16.0 °C11 km/hNO19 km/h27.71014 hPa0.2 mm
18/08/2022 18:1328.0 °C49 %16.3 °C10 km/hOSO19 km/h28.01014 hPa0.2 mm
18/08/2022 18:0327.7 °C51 %16.6 °C11 km/hOSO21 km/h27.71014 hPa0.2 mm
18/08/2022 17:5827.6 °C51 %16.6 °C15 km/hO26 km/h27.61014 hPa0.2 mm
18/08/2022 17:4827.4 °C51 %16.4 °C8 km/hO18 km/h27.41014 hPa0.2 mm
18/08/2022 17:4326.8 °C52 %16.1 °C8 km/hOSO19 km/h26.81014 hPa0.2 mm
18/08/2022 17:3327.0 °C52 %16.3 °C11 km/hONO21 km/h27.01014 hPa0.2 mm
18/08/2022 17:2827.3 °C53 %16.9 °C8 km/hSO16 km/h27.31014 hPa0.2 mm
18/08/2022 17:1826.7 °C55 %16.9 °C11 km/hO19 km/h26.71014 hPa0.2 mm
18/08/2022 17:1326.6 °C55 %16.8 °C11 km/hNW19 km/h26.31014 hPa0.2 mm
18/08/2022 17:0326.7 °C55 %16.9 °C10 km/hNNO18 km/h26.71014 hPa0.2 mm
18/08/2022 16:5826.3 °C57 %17.1 °C3 km/hONO16 km/h26.31014 hPa0.2 mm
18/08/2022 16:4827.1 °C54 %17.0 °C11 km/hO19 km/h27.11014 hPa0.2 mm
18/08/2022 16:4327.1 °C55 %17.3 °C6 km/hO19 km/h27.11014 hPa0.2 mm
18/08/2022 16:3326.3 °C57 %17.1 °C8 km/hONO16 km/h26.31014 hPa0.2 mm
18/08/2022 16:2826.8 °C55 %17.0 °C11 km/hONO21 km/h26.81014 hPa0.2 mm
18/08/2022 16:1828.1 °C52 %17.3 °C10 km/hNO21 km/h28.11014 hPa0.2 mm
18/08/2022 16:1328.2 °C52 %17.4 °C3 km/hNW19 km/h28.21014 hPa0.2 mm
18/08/2022 16:0327.9 °C53 %17.5 °C6 km/hOSO18 km/h27.91014 hPa0.2 mm
18/08/2022 15:5827.9 °C50 %16.5 °C3 km/hONO21 km/h27.91014 hPa0.2 mm
18/08/2022 15:4828.3 °C51 %17.2 °C10 km/hO18 km/h28.31014 hPa0.2 mm
18/08/2022 15:4328.1 °C54 %17.9 °C6 km/hOSO15 km/h28.11014 hPa0.2 mm
18/08/2022 15:3327.8 °C53 %17.4 °C10 km/hOSO18 km/h27.81014 hPa0.2 mm
18/08/2022 15:2827.6 °C53 %17.2 °C8 km/hONO16 km/h27.61014 hPa0.2 mm
18/08/2022 15:1827.4 °C54 %17.3 °C6 km/hOSO15 km/h27.41014 hPa0.2 mm
18/08/2022 15:1327.4 °C55 %17.5 °C8 km/hSO16 km/h27.41014 hPa0.2 mm
18/08/2022 15:0326.8 °C54 %16.7 °C5 km/hNO13 km/h26.81014 hPa0.2 mm
18/08/2022 14:5826.8 °C55 %17.0 °C2 km/hSO16 km/h26.81014 hPa0.2 mm
18/08/2022 14:4826.4 °C56 %16.9 °C6 km/hNO16 km/h26.41014 hPa0.2 mm
18/08/2022 14:4326.3 °C55 %16.6 °C2 km/hONO11 km/h26.31014 hPa0.2 mm
18/08/2022 14:3325.9 °C56 %16.4 °C6 km/hONO15 km/h25.91014 hPa0.2 mm
18/08/2022 14:2826.5 °C54 %16.4 °C15 km/hNW15 km/h26.51014 hPa0.2 mm
18/08/2022 14:1827.4 °C54 %17.3 °C5 km/hONO11 km/h27.41014 hPa0.2 mm
18/08/2022 14:1327.1 °C53 %16.7 °C5 km/hONO13 km/h27.11014 hPa0.2 mm
18/08/2022 14:0326.8 °C55 %17.0 °C8 km/hSO16 km/h26.81014 hPa0.2 mm
18/08/2022 13:5826.5 °C59 %17.8 °C5 km/hSO16 km/h26.51014 hPa0.2 mm
18/08/2022 13:4826.1 °C55 %16.4 °C8 km/hOSO13 km/h26.11014 hPa0.2 mm
18/08/2022 13:4325.9 °C59 %17.3 °C8 km/hOSO11 km/h25.91014 hPa0.2 mm
18/08/2022 13:3325.0 °C60 %16.7 °C8 km/hO13 km/h25.01014 hPa0.2 mm
18/08/2022 13:2824.6 °C60 %16.3 °C6 km/hONO15 km/h24.61014 hPa0.2 mm
18/08/2022 13:1824.4 °C62 %16.6 °C5 km/hONO13 km/h24.41014 hPa0.2 mm
18/08/2022 13:1324.2 °C63 %16.7 °C2 km/hE16 km/h24.21014 hPa0.2 mm
18/08/2022 13:0325.1 °C60 %16.8 °C8 km/hONO15 km/h25.11014 hPa0.2 mm
18/08/2022 12:5825.1 °C62 %17.3 °C3 km/hNW15 km/h25.11014 hPa0.2 mm
18/08/2022 12:4825.1 °C64 %17.8 °C6 km/hONO13 km/h25.11014 hPa0.2 mm
18/08/2022 12:4324.4 °C67 %17.9 °C8 km/hOSO11 km/h24.41014 hPa0.2 mm
18/08/2022 12:3324.6 °C63 %17.1 °C6 km/hNO13 km/h24.61014 hPa0.2 mm
18/08/2022 12:2824.8 °C65 %17.8 °C11 km/hNW13 km/h24.81014 hPa0.2 mm
18/08/2022 12:1824.5 °C70 %18.7 °C6 km/hONO15 km/h24.51014 hPa0.2 mm
18/08/2022 12:1324.1 °C68 %17.8 °C5 km/hSO11 km/h24.11014 hPa0.2 mm
18/08/2022 12:0323.8 °C69 %17.7 °C6 km/hO11 km/h23.81014 hPa0.2 mm
18/08/2022 11:5823.6 °C72 %18.2 °C5 km/hOSO11 km/h23.61014 hPa0.2 mm
18/08/2022 11:4823.3 °C75 %18.6 °C6 km/hO13 km/h23.31014 hPa0.2 mm
18/08/2022 11:4323.1 °C73 %18.0 °C8 km/hONO13 km/h23.11014 hPa0.2 mm
18/08/2022 11:3322.5 °C75 %17.8 °C5 km/hO8 km/h22.51014 hPa0.2 mm
18/08/2022 11:2822.4 °C76 %18.0 °C5 km/hOSO13 km/h22.41014 hPa0.2 mm
18/08/2022 11:1821.9 °C77 %17.7 °C5 km/hOSO8 km/h21.91014 hPa0.2 mm
18/08/2022 11:1321.8 °C78 %17.8 °C6 km/hOSO11 km/h21.81014 hPa0.2 mm
18/08/2022 11:0321.3 °C80 %17.7 °C5 km/hOSO8 km/h21.31014 hPa0.2 mm
18/08/2022 10:5821.3 °C82 %18.1 °C6 km/hSO8 km/h21.31014 hPa0.2 mm
18/08/2022 10:4820.7 °C82 %17.5 °C5 km/hO10 km/h20.71014 hPa0.2 mm
18/08/2022 10:4320.5 °C85 %17.9 °C5 km/hSO10 km/h20.51014 hPa0.2 mm
18/08/2022 10:3319.8 °C86 %17.4 °C6 km/hSO11 km/h19.81014 hPa0.2 mm
18/08/2022 10:2819.5 °C88 %17.5 °C5 km/hO13 km/h19.51014 hPa0.2 mm
18/08/2022 10:1819.1 °C90 %17.4 °C8 km/hO13 km/h19.11014 hPa0.2 mm
18/08/2022 10:1318.7 °C92 %17.3 °C6 km/hO11 km/h18.71014 hPa0.2 mm
18/08/2022 10:0818.2 °C93 %17.1 °C5 km/hO8 km/h18.21014 hPa0.2 mm
18/08/2022 09:5817.6 °C96 %17.0 °C3 km/hOSO10 km/h17.61014 hPa0.2 mm
18/08/2022 09:4817.2 °C97 %16.7 °C6 km/hOSO11 km/h17.21014 hPa0.2 mm
18/08/2022 09:4317.1 °C98 %16.8 °C5 km/hSO11 km/h17.11014 hPa0.2 mm
18/08/2022 09:3316.6 °C98 %16.3 °C3 km/hSO8 km/h16.61014 hPa0.2 mm
18/08/2022 09:2816.6 °C98 %16.2 °C2 km/hSSO6 km/h16.61014 hPa0.2 mm
18/08/2022 09:1816.1 °C98 %15.8 °C5 km/hSSO6 km/h16.11014 hPa0.2 mm
18/08/2022 09:1315.8 °C98 %15.5 °C3 km/hSSO6 km/h15.81014 hPa0.2 mm
18/08/2022 09:0315.5 °C98 %15.2 °C5 km/hSSO8 km/h15.51014 hPa0.2 mm
18/08/2022 08:5815.3 °C98 %15.0 °C6 km/hSSO8 km/h15.31014 hPa0.2 mm
18/08/2022 08:4815.1 °C98 %14.8 °C2 km/hS8 km/h15.11014 hPa0.2 mm
18/08/2022 08:4315.1 °C98 %14.7 °C---15.11014 hPa0.2 mm
18/08/2022 08:3314.7 °C98 %14.4 °C---14.71014 hPa0.2 mm
18/08/2022 08:2814.5 °C98 %14.2 °C---14.51014 hPa0.2 mm
18/08/2022 08:1814.3 °C98 %14.0 °C---14.31014 hPa0.2 mm
18/08/2022 08:1314.1 °C99 %14.0 °C---14.11014 hPa0.2 mm
18/08/2022 08:0313.6 °C98 %13.2 °C---13.61014 hPa0.2 mm
18/08/2022 07:5813.3 °C98 %13.0 °C---13.31014 hPa0.2 mm
18/08/2022 07:4813.1 °C98 %12.8 °C---13.11014 hPa0.2 mm
18/08/2022 07:4313.0 °C98 %12.7 °C---13.01014 hPa0.2 mm
18/08/2022 07:3313.0 °C98 %12.7 °C---13.01013 hPa0.2 mm
18/08/2022 07:2813.0 °C98 %12.7 °C---13.01013 hPa0.2 mm
18/08/2022 07:1813.0 °C98 %12.7 °C---13.01013 hPa0.2 mm
18/08/2022 07:1313.1 °C97 %12.6 °C---13.11014 hPa0.2 mm
18/08/2022 07:0313.1 °C97 %12.6 °C---13.11013 hPa0.2 mm
18/08/2022 06:5813.0 °C97 %12.5 °C---13.01013 hPa0.2 mm
18/08/2022 06:4813.1 °C97 %12.6 °C---13.11013 hPa0.2 mm
18/08/2022 06:4313.1 °C97 %12.6 °C---13.11013 hPa0.2 mm
18/08/2022 06:3313.1 °C97 %12.6 °C---13.11013 hPa0.2 mm
18/08/2022 06:2813.1 °C97 %12.6 °C---13.11013 hPa0.2 mm
18/08/2022 06:1813.2 °C97 %12.7 °C---13.21013 hPa0.2 mm
18/08/2022 06:1313.2 °C97 %12.8 °C---13.21013 hPa0.2 mm
18/08/2022 06:0313.4 °C97 %12.9 °C---13.41013 hPa0.2 mm
18/08/2022 05:5813.4 °C97 %13.0 °C---13.41013 hPa0.2 mm
18/08/2022 05:4813.6 °C97 %13.1 °C---13.61013 hPa0.2 mm
18/08/2022 05:4313.6 °C97 %13.1 °C---13.61013 hPa0.2 mm
18/08/2022 05:3313.6 °C97 %13.1 °C---13.61013 hPa0.2 mm
18/08/2022 05:2813.6 °C97 %13.1 °C---13.61013 hPa0.2 mm
18/08/2022 05:1813.7 °C97 %13.3 °C---13.71013 hPa0.2 mm
18/08/2022 05:1313.7 °C97 %13.2 °C---13.71013 hPa0.2 mm
18/08/2022 05:0313.6 °C97 %13.1 °C---13.61013 hPa0.0 mm
18/08/2022 04:5813.7 °C97 %13.2 °C---13.71013 hPa0.0 mm
18/08/2022 04:4813.7 °C97 %13.2 °C---13.71013 hPa0.0 mm
18/08/2022 04:4313.6 °C97 %13.1 °C---13.61013 hPa0.0 mm
18/08/2022 04:3313.6 °C97 %13.1 °C---13.61013 hPa0.0 mm
18/08/2022 04:2813.6 °C96 %12.9 °C---13.61013 hPa0.0 mm
18/08/2022 04:1813.8 °C96 %13.2 °C---13.81013 hPa0.0 mm
18/08/2022 04:1313.9 °C96 %13.3 °C---13.91013 hPa0.0 mm
18/08/2022 04:0314.1 °C96 %13.4 °C---14.11013 hPa0.0 mm
18/08/2022 03:5814.2 °C96 %13.5 °C---14.21013 hPa0.0 mm
18/08/2022 03:4814.3 °C96 %13.7 °C---14.31013 hPa0.0 mm
18/08/2022 03:4314.4 °C96 %13.8 °C---14.41013 hPa0.0 mm
18/08/2022 03:3314.3 °C97 %13.9 °C---14.31013 hPa0.0 mm
18/08/2022 03:2814.3 °C96 %13.6 °C---14.31013 hPa0.0 mm
18/08/2022 03:1814.3 °C96 %13.7 °C---14.31013 hPa0.0 mm
18/08/2022 03:1314.3 °C96 %13.6 °C---14.31013 hPa0.0 mm
18/08/2022 03:0314.3 °C96 %13.7 °C---14.31013 hPa0.0 mm
18/08/2022 02:5814.6 °C96 %14.0 °C---14.61013 hPa0.0 mm
18/08/2022 02:4814.7 °C96 %14.0 °C---14.71013 hPa0.0 mm
18/08/2022 02:4314.6 °C96 %14.0 °C---14.61013 hPa0.0 mm
18/08/2022 02:3314.7 °C96 %14.0 °C---14.71013 hPa0.0 mm
18/08/2022 02:2814.6 °C96 %14.0 °C-SSE2 km/h14.61013 hPa0.0 mm
18/08/2022 02:1814.9 °C96 %14.3 °C-ESE2 km/h14.91013 hPa0.0 mm
18/08/2022 02:1314.9 °C96 %14.3 °C2 km/hESE2 km/h14.91013 hPa0.0 mm
18/08/2022 02:0315.1 °C96 %14.5 °C-ESE3 km/h15.11013 hPa0.0 mm
18/08/2022 01:5815.1 °C96 %14.5 °C-ESE3 km/h15.11013 hPa0.0 mm
18/08/2022 01:4815.1 °C96 %14.5 °C2 km/hESE3 km/h15.11013 hPa0.0 mm
18/08/2022 01:4315.2 °C96 %14.5 °C2 km/hESE6 km/h15.21013 hPa0.0 mm
18/08/2022 01:3315.3 °C96 %14.6 °C2 km/hESE8 km/h15.31013 hPa0.0 mm
18/08/2022 01:2815.3 °C95 %14.5 °C-ESE8 km/h15.31013 hPa0.0 mm
18/08/2022 01:1815.4 °C95 %14.6 °C---15.41013 hPa0.0 mm
18/08/2022 01:1315.6 °C95 %14.8 °C---15.61013 hPa0.0 mm
18/08/2022 01:0315.7 °C95 %14.9 °C2 km/hENE5 km/h15.71013 hPa0.0 mm
18/08/2022 00:5815.7 °C95 %14.9 °C-ENE5 km/h15.71012 hPa0.0 mm
18/08/2022 00:4815.8 °C95 %15.0 °C-ENE2 km/h15.81012 hPa0.0 mm
18/08/2022 00:4315.8 °C95 %15.0 °C-ENE3 km/h15.81013 hPa0.0 mm
18/08/2022 00:3315.9 °C95 %15.1 °C-ENE2 km/h15.91012 hPa0.0 mm
18/08/2022 00:2816.0 °C95 %15.2 °C---16.01012 hPa0.0 mm
18/08/2022 00:1816.2 °C95 %15.4 °C-ENE2 km/h16.21012 hPa0.0 mm
18/08/2022 00:1316.2 °C95 %15.4 °C2 km/hENE2 km/h16.21012 hPa0.0 mm
18/08/2022 00:0316.3 °C95 %15.5 °C---16.31012 hPa0.0 mm


Minima :

Température : 13.0 °C
Humidité : 45 %
Point de rosée : 12.5 °C
Vent moyen : 2 km/h
Windchill : 13.0
Pression atm. : 1012 hPa
Maxima :

Température : 28.3 °C
Humidité : 99 %
Point de rosée : 18.7 °C
Vent moyen : 15 km/h
Windchill : 28.3
Pression atm. : 1016 hPa
Rafales max : 26 km/h
Cumul de pluie sur 24H : 0.2 mm

Chailles est une commune du département Loir-et-Cher (41).
La station météorologique du réseau de l'association la plus proche de Chailles est celle de Tour-en-Sologne
Site du propriétaire de la station : http://jmj41.com/meteo/



Icône Facebook Association Météo Centre Icône Twitter Association Météo Centre Icône Chaîne Youtube Association Météo Centre Icône contact Association Météo Centre Icône Insta Association Météo Centre